createdAt,value
2018-03-30T00:01:50.891Z,100915.13
2018-03-30T00:04:17.324Z,100912.59
2018-03-30T00:06:43.560Z,100900.81
2018-03-30T00:09:09.815Z,100896.45
2018-03-30T00:11:36.055Z,100890.80
2018-03-30T00:14:02.210Z,100886.39
2018-03-30T00:16:28.402Z,100883.77
2018-03-30T00:18:54.574Z,100882.48
2018-03-30T00:21:20.758Z,100885.58
2018-03-30T00:23:46.988Z,100893.89
2018-03-30T00:26:13.153Z,100894.36
2018-03-30T00:28:39.603Z,100902.16
2018-03-30T00:31:06.140Z,100900.45
2018-03-30T00:33:32.343Z,100894.76
2018-03-30T00:35:58.552Z,100903.06
2018-03-30T00:38:24.794Z,100903.04
2018-03-30T00:40:51.017Z,100906.09
2018-03-30T00:43:17.187Z,100905.22
2018-03-30T00:45:43.716Z,100906.56
2018-03-30T00:48:10.037Z,100906.16
2018-03-30T00:50:37.106Z,100911.41
2018-03-30T00:53:03.308Z,100904.88
2018-03-30T00:55:29.496Z,100907.94
2018-03-30T00:57:55.982Z,100908.34
2018-03-30T01:00:22.233Z,100918.41
2018-03-30T01:02:48.431Z,100914.91
2018-03-30T01:05:14.604Z,100912.75
2018-03-30T01:07:41.112Z,100914.97
2018-03-30T01:10:07.635Z,100916.28
2018-03-30T01:12:34.065Z,100916.31
2018-03-30T01:15:00.287Z,100908.84
2018-03-30T01:17:26.502Z,100914.13
2018-03-30T01:19:52.676Z,100906.66
2018-03-30T01:22:18.892Z,100906.22
2018-03-30T01:24:45.053Z,100914.13
2018-03-30T01:27:11.223Z,100917.16
2018-03-30T01:29:37.646Z,100913.69
2018-03-30T01:32:03.862Z,100908.81
2018-03-30T01:34:30.014Z,100910.59
2018-03-30T01:36:56.171Z,100910.56
2018-03-30T01:39:22.409Z,100914.53
2018-03-30T01:41:49.021Z,100916.75
2018-03-30T01:44:22.080Z,100925.48
2018-03-30T01:46:48.657Z,100920.68
2018-03-30T01:49:14.867Z,100917.63
2018-03-30T01:51:41.047Z,100922.88
2018-03-30T01:54:07.523Z,100908.00
2018-03-30T01:56:33.767Z,100913.69
2018-03-30T01:59:00.344Z,100911.06
2018-03-30T02:01:26.511Z,100915.47
2018-03-30T02:03:52.711Z,100910.69
2018-03-30T02:06:18.875Z,100911.13
2018-03-30T02:08:45.403Z,100902.84
2018-03-30T02:11:11.633Z,100901.56
2018-03-30T02:13:37.835Z,100904.63
2018-03-30T02:16:04.000Z,100898.06
2018-03-30T02:18:30.523Z,100902.47
2018-03-30T02:20:56.742Z,100905.09
2018-03-30T02:23:22.906Z,100903.78
2018-03-30T02:25:49.211Z,100898.63
2018-03-30T02:28:15.375Z,100898.16
2018-03-30T02:30:41.867Z,100890.26
2018-03-30T02:33:08.089Z,100891.13
2018-03-30T02:35:34.318Z,100889.88
2018-03-30T02:38:00.754Z,100881.52
2018-03-30T02:40:26.987Z,100884.58
2018-03-30T02:42:53.179Z,100886.77
2018-03-30T02:45:19.384Z,100883.73
2018-03-30T02:47:45.631Z,100883.73
2018-03-30T02:50:11.794Z,100884.58
2018-03-30T02:52:38.043Z,100888.08
2018-03-30T02:55:04.215Z,100886.83
2018-03-30T02:57:30.801Z,100885.08
2018-03-30T02:59:57.086Z,100888.13
2018-03-30T03:02:23.264Z,100889.85
2018-03-30T03:04:49.484Z,100888.13
2018-03-30T03:07:15.645Z,100874.20
2018-03-30T03:09:42.136Z,100878.55
2018-03-30T03:12:08.682Z,100884.23
2018-03-30T03:14:34.869Z,100887.70
2018-03-30T03:17:01.027Z,100879.36
2018-03-30T03:19:27.556Z,100878.92
2018-03-30T03:21:53.753Z,100866.31
2018-03-30T03:24:19.914Z,100864.09
2018-03-30T03:26:46.442Z,100856.25
2018-03-30T03:29:12.671Z,100855.38
2018-03-30T03:31:38.914Z,100866.71
2018-03-30T03:34:05.087Z,100871.52
2018-03-30T03:36:31.325Z,100870.24
2018-03-30T03:38:57.560Z,100880.73
2018-03-30T03:41:23.767Z,100880.33
2018-03-30T03:43:50.247Z,100875.92
2018-03-30T03:46:16.415Z,100870.68
2018-03-30T03:48:42.610Z,100869.80
2018-03-30T03:51:08.779Z,100869.40
2018-03-30T03:53:35.026Z,100866.34
2018-03-30T03:56:01.219Z,100862.81
2018-03-30T03:58:27.436Z,100867.65
2018-03-30T04:00:53.596Z,100868.09
2018-03-30T04:03:20.189Z,100871.58
2018-03-30T04:05:46.417Z,100873.36
2018-03-30T04:08:12.834Z,100872.95
2018-03-30T04:10:39.024Z,100877.33
2018-03-30T04:13:05.514Z,100876.39
2018-03-30T04:15:32.037Z,100877.77
2018-03-30T04:17:58.287Z,100876.95
2018-03-30T04:20:24.456Z,100879.20
2018-03-30T04:22:50.651Z,100885.76
2018-03-30T04:25:16.874Z,100892.72
2018-03-30T04:27:43.392Z,100893.56
2018-03-30T04:30:09.603Z,100887.47
2018-03-30T04:32:35.791Z,100887.50
2018-03-30T04:35:01.996Z,100887.06
2018-03-30T04:37:28.191Z,100884.87
2018-03-30T04:39:54.370Z,100881.36
2018-03-30T04:42:20.618Z,100876.98
2018-03-30T04:44:46.803Z,100874.80
2018-03-30T04:47:13.095Z,100868.70
2018-03-30T04:49:39.285Z,100861.69
2018-03-30T04:52:05.525Z,100862.55
2018-03-30T04:54:31.692Z,100856.91
2018-03-30T04:56:57.906Z,100858.16
2018-03-30T04:59:24.340Z,100854.22
2018-03-30T05:01:50.594Z,100856.34
2018-03-30T05:04:17.123Z,100862.09
2018-03-30T05:06:43.349Z,100867.33
2018-03-30T05:09:09.511Z,100875.30
2018-03-30T05:11:35.708Z,100878.35
2018-03-30T05:14:01.876Z,100880.60
2018-03-30T05:16:28.465Z,100876.66
2018-03-30T05:18:54.663Z,100880.13
2018-03-30T05:21:20.879Z,100885.34
2018-03-30T05:23:47.086Z,100882.70
2018-03-30T05:26:13.574Z,100876.48
2018-03-30T05:28:39.819Z,100878.17
2018-03-30T05:31:06.335Z,100875.89
2018-03-30T05:33:32.524Z,100874.05
2018-03-30T05:35:59.113Z,100873.61
2018-03-30T05:38:25.291Z,100870.99
2018-03-30T05:40:51.540Z,100874.89
2018-03-30T05:43:17.775Z,100878.83
2018-03-30T05:45:44.379Z,100878.83
2018-03-30T05:48:10.629Z,100879.30
2018-03-30T05:50:37.082Z,100887.58
2018-03-30T05:53:04.041Z,100878.83
2018-03-30T05:55:30.577Z,100881.83
2018-03-30T05:57:56.792Z,100881.77
2018-03-30T06:00:22.994Z,100883.05
2018-03-30T06:02:49.174Z,100881.23
2018-03-30T06:05:15.676Z,100876.39
2018-03-30T06:07:42.524Z,100876.80
2018-03-30T06:10:08.767Z,100879.83
2018-03-30T06:12:34.960Z,100876.73
2018-03-30T06:15:01.191Z,100871.39
2018-03-30T06:17:27.381Z,100872.64
2018-03-30T06:19:53.531Z,100873.02
2018-03-30T06:22:19.766Z,100866.89
2018-03-30T06:24:45.977Z,100872.98
2018-03-30T06:27:12.245Z,100868.14
2018-03-30T06:29:38.405Z,100862.05
2018-03-30T06:32:04.905Z,100863.73
2018-03-30T06:34:31.443Z,100861.55
2018-03-30T06:36:57.630Z,100857.54
2018-03-30T06:39:23.867Z,100864.07
2018-03-30T06:41:50.045Z,100868.45
2018-03-30T06:44:16.253Z,100868.84
2018-03-30T06:46:42.471Z,100869.32
2018-03-30T06:49:08.752Z,100874.09
2018-03-30T06:51:34.960Z,100874.88
2018-03-30T06:54:01.165Z,100877.06
2018-03-30T06:56:27.359Z,100875.22
2018-03-30T06:58:53.532Z,100881.74
2018-03-30T07:01:19.756Z,100877.80
2018-03-30T07:03:45.953Z,100890.42
2018-03-30T07:06:19.115Z,100891.67
2018-03-30T07:08:45.270Z,100892.01
2018-03-30T07:11:11.501Z,100900.73
2018-03-30T07:13:37.953Z,100894.16
2018-03-30T07:16:04.241Z,100900.66
2018-03-30T07:18:30.890Z,100899.75
2018-03-30T07:20:57.074Z,100892.72
2018-03-30T07:23:23.293Z,100893.96
2018-03-30T07:25:49.477Z,100891.73
2018-03-30T07:28:15.694Z,100897.36
2018-03-30T07:30:42.166Z,100887.73
2018-03-30T07:33:08.410Z,100888.58
2018-03-30T07:35:34.578Z,100882.81
2018-03-30T07:38:00.798Z,100880.22
2018-03-30T07:40:27.006Z,100884.90
2018-03-30T07:42:53.202Z,100880.45
2018-03-30T07:45:19.367Z,100875.20
2018-03-30T07:47:46.275Z,100874.69
2018-03-30T07:50:12.437Z,100875.90
2018-03-30T07:52:38.611Z,100878.89
2018-03-30T07:55:04.797Z,100873.53
2018-03-30T07:57:31.292Z,100878.71
2018-03-30T07:59:57.516Z,100873.86
2018-03-30T08:02:23.699Z,100876.05
2018-03-30T08:04:49.886Z,100872.51
2018-03-30T08:07:16.079Z,100875.50
2018-03-30T08:09:42.257Z,100875.39
2018-03-30T08:12:08.468Z,100880.61
2018-03-30T08:14:35.004Z,100879.62
2018-03-30T08:17:01.199Z,100881.70
2018-03-30T08:19:27.372Z,100872.47
2018-03-30T08:21:53.570Z,100869.30
2018-03-30T08:24:19.744Z,100874.52
2018-03-30T08:26:46.052Z,100872.72
2018-03-30T08:29:12.210Z,100876.63
2018-03-30T08:31:38.507Z,100869.19
2018-03-30T08:34:04.678Z,100864.80
2018-03-30T08:36:30.926Z,100860.86
2018-03-30T08:38:57.107Z,100866.44
2018-03-30T08:41:23.342Z,100858.95
2018-03-30T08:43:49.518Z,100864.17
2018-03-30T08:46:15.753Z,100863.66
2018-03-30T08:48:41.942Z,100860.55
2018-03-30T08:51:08.410Z,100856.64
2018-03-30T08:53:34.578Z,100859.75
2018-03-30T08:56:00.815Z,100858.03
2018-03-30T08:58:27.044Z,100861.98
2018-03-30T09:00:53.264Z,100855.81
2018-03-30T09:03:19.498Z,100852.34
2018-03-30T09:05:45.684Z,100854.49
2018-03-30T09:08:11.887Z,100864.49
2018-03-30T09:10:38.338Z,100864.93
2018-03-30T09:13:04.875Z,100857.52
2018-03-30T09:15:31.074Z,100858.39
2018-03-30T09:17:57.534Z,100856.61
2018-03-30T09:20:24.072Z,100854.37
2018-03-30T09:22:50.270Z,100853.02
2018-03-30T09:25:16.452Z,100855.09
2018-03-30T09:27:42.643Z,100857.22
2018-03-30T09:30:08.838Z,100854.55
2018-03-30T09:32:35.111Z,100847.57
2018-03-30T09:35:01.343Z,100842.71
2018-03-30T09:37:27.888Z,100846.98
2018-03-30T09:39:54.134Z,100839.84
2018-03-30T09:42:20.640Z,100844.94
2018-03-30T09:44:47.065Z,100841.76
2018-03-30T09:47:13.281Z,100840.75
2018-03-30T09:49:39.847Z,100836.25
2018-03-30T09:52:06.071Z,100840.95
2018-03-30T09:54:32.273Z,100829.52
2018-03-30T09:56:58.519Z,100833.37
2018-03-30T09:59:24.951Z,100828.39
2018-03-30T10:01:51.274Z,100822.64
2018-03-30T10:04:17.518Z,100823.05
2018-03-30T10:06:43.695Z,100822.61
2018-03-30T10:09:09.900Z,100819.18
2018-03-30T10:11:36.154Z,100819.27
2018-03-30T10:14:02.372Z,100818.52
2018-03-30T10:16:28.595Z,100818.16
2018-03-30T10:18:54.767Z,100818.16
2018-03-30T10:21:20.972Z,100818.63
2018-03-30T10:23:47.540Z,100816.36
2018-03-30T10:26:13.763Z,100806.27
2018-03-30T10:28:40.015Z,100807.99
2018-03-30T10:31:06.224Z,100808.86
2018-03-30T10:33:32.426Z,100806.19
2018-03-30T10:35:58.657Z,100807.42
2018-03-30T10:38:25.230Z,100806.98
2018-03-30T10:40:51.469Z,100800.41
2018-03-30T10:43:17.720Z,100796.47
2018-03-30T10:45:43.898Z,100803.04
2018-03-30T10:48:10.184Z,100794.71
2018-03-30T10:50:36.662Z,100792.03
2018-03-30T10:53:02.924Z,100797.22
2018-03-30T10:55:29.201Z,100794.10
2018-03-30T10:57:55.815Z,100788.31
2018-03-30T11:00:22.290Z,100788.63
2018-03-30T11:02:48.460Z,100792.44
2018-03-30T11:05:14.999Z,100791.47
2018-03-30T11:07:41.163Z,100784.29
2018-03-30T11:10:14.446Z,100779.86
2018-03-30T11:12:40.597Z,100780.25
2018-03-30T11:15:06.806Z,100774.94
2018-03-30T11:17:33.010Z,100776.73
2018-03-30T11:19:59.242Z,100767.05
2018-03-30T11:22:25.428Z,100762.61
2018-03-30T11:24:51.610Z,100760.41
2018-03-30T11:27:17.826Z,100756.86
2018-03-30T11:29:44.303Z,100749.45
2018-03-30T11:32:10.848Z,100749.45
2018-03-30T11:34:37.027Z,100741.55
2018-03-30T11:37:03.226Z,100739.84
2018-03-30T11:39:29.634Z,100741.16
2018-03-30T11:41:55.832Z,100738.92
2018-03-30T11:44:22.038Z,100728.44
2018-03-30T11:46:48.252Z,100719.67
2018-03-30T11:49:14.695Z,100716.99
2018-03-30T11:51:40.921Z,100715.23
2018-03-30T11:54:07.122Z,100709.97
2018-03-30T11:56:33.286Z,100706.02
2018-03-30T11:58:59.866Z,100702.87
2018-03-30T12:01:26.048Z,100705.01
2018-03-30T12:03:52.286Z,100699.21
2018-03-30T12:06:18.492Z,100690.41
2018-03-30T12:08:45.387Z,100686.41
2018-03-30T12:11:11.558Z,100680.59
2018-03-30T12:13:37.778Z,100673.24
2018-03-30T12:16:04.276Z,100679.52
2018-03-30T12:18:30.455Z,100674.73
2018-03-30T12:20:56.716Z,100668.07
2018-03-30T12:23:22.886Z,100661.75
2018-03-30T12:25:49.067Z,100650.68
2018-03-30T12:28:15.624Z,100642.54
2018-03-30T12:30:41.807Z,100640.98
2018-03-30T12:33:08.008Z,100641.28
2018-03-30T12:35:34.197Z,100638.24
2018-03-30T12:38:00.365Z,100633.28
2018-03-30T12:40:26.578Z,100635.81
2018-03-30T12:42:52.848Z,100634.00
2018-03-30T12:45:19.038Z,100632.58
2018-03-30T12:47:45.244Z,100626.34
2018-03-30T12:50:11.640Z,100617.86
2018-03-30T12:52:38.211Z,100608.05
2018-03-30T12:55:04.749Z,100604.92
2018-03-30T12:57:30.938Z,100604.83
2018-03-30T12:59:57.813Z,100603.94
2018-03-30T13:02:24.041Z,100601.27
2018-03-30T13:04:50.581Z,100596.86
2018-03-30T13:07:16.774Z,100595.90
2018-03-30T13:09:43.178Z,100595.84
2018-03-30T13:12:09.786Z,100590.52
2018-03-30T13:14:36.207Z,100587.34
2018-03-30T13:17:02.647Z,100585.09
2018-03-30T13:19:28.892Z,100581.92
2018-03-30T13:21:55.083Z,100577.81
2018-03-30T13:24:21.325Z,100568.85
2018-03-30T13:26:47.530Z,100570.83
2018-03-30T13:29:13.727Z,100565.83
2018-03-30T13:31:39.896Z,100561.08
2018-03-30T13:34:06.125Z,100564.70
2018-03-30T13:36:32.319Z,100555.69
2018-03-30T13:38:58.514Z,100557.72
2018-03-30T13:41:25.128Z,100549.03
2018-03-30T13:43:51.291Z,100552.61
2018-03-30T13:46:17.437Z,100545.63
2018-03-30T13:48:43.925Z,100526.08
2018-03-30T13:54:22.017Z,100510.80
2018-03-30T13:56:48.590Z,100510.50
2018-03-30T13:59:16.503Z,100507.71
2018-03-30T14:02:03.954Z,100505.77
2018-03-30T14:04:34.027Z,100502.81
2018-03-30T14:07:07.154Z,100503.61
2018-03-30T14:09:36.804Z,100494.83
2018-03-30T14:12:06.009Z,100485.67
2018-03-30T14:14:32.523Z,100481.15
2018-03-30T14:17:08.430Z,100471.28
2018-03-30T14:19:34.700Z,100468.13
2018-03-30T14:25:01.816Z,100467.73
2018-03-30T14:27:32.107Z,100467.05
2018-03-30T14:30:05.984Z,100461.44
2018-03-30T14:32:38.499Z,100460.55
2018-03-30T14:35:27.374Z,100448.73
2018-03-30T14:37:54.597Z,100449.63
2018-03-30T14:40:25.644Z,100456.02
2018-03-30T14:43:01.996Z,100451.88
2018-03-30T14:45:32.240Z,100455.04
2018-03-30T14:47:59.317Z,100457.47
2018-03-30T14:50:41.748Z,100458.59
2018-03-30T14:53:08.976Z,100457.95
2018-03-30T14:55:41.418Z,100461.63
2018-03-30T14:58:14.445Z,100461.26
2018-03-30T15:00:41.074Z,100461.17
2018-03-30T15:03:24.888Z,100453.21
2018-03-30T15:06:00.010Z,100463.48
2018-03-30T15:08:29.171Z,100471.70
2018-03-30T15:13:51.331Z,100489.49
2018-03-30T15:16:32.530Z,100494.18
2018-03-30T15:18:59.635Z,100504.70
2018-03-30T15:21:34.191Z,100508.43
2018-03-30T15:24:02.141Z,100508.30
2018-03-30T15:26:46.423Z,100508.00
2018-03-30T15:29:13.739Z,100505.92
2018-03-30T15:34:51.678Z,100494.59
2018-03-30T15:37:17.997Z,100490.25
2018-03-30T15:39:45.236Z,100488.33
2018-03-30T15:42:12.504Z,100491.98
2018-03-30T15:44:44.538Z,100492.78
2018-03-30T15:47:10.818Z,100493.30
2018-03-30T15:49:41.256Z,100493.42
2018-03-30T15:52:09.735Z,100493.64
2018-03-30T15:54:35.891Z,100485.70
2018-03-30T15:57:02.141Z,100481.16
2018-03-30T15:59:28.735Z,100479.14
2018-03-30T16:01:54.895Z,100473.05
2018-03-30T16:04:21.115Z,100473.44
2018-03-30T16:06:47.619Z,100470.53
2018-03-30T16:09:18.730Z,100460.52
2018-03-30T16:11:48.057Z,100462.77
2018-03-30T16:14:14.312Z,100457.63
2018-03-30T16:16:40.538Z,100451.34
2018-03-30T16:19:06.496Z,100453.42
2018-03-30T16:21:32.765Z,100449.14
2018-03-30T16:23:58.703Z,100439.95
2018-03-30T16:26:24.644Z,100439.17
2018-03-30T16:28:50.591Z,100447.70
2018-03-30T16:31:16.544Z,100446.60
2018-03-30T16:33:42.486Z,100451.39
2018-03-30T16:36:08.412Z,100438.91
2018-03-30T16:38:34.445Z,100447.19
2018-03-30T16:41:00.398Z,100445.31
2018-03-30T16:43:26.671Z,100443.34
2018-03-30T16:45:52.596Z,100445.89
2018-03-30T16:48:18.605Z,100444.11
2018-03-30T16:50:44.586Z,100450.77
2018-03-30T16:53:10.887Z,100453.84
2018-03-30T16:55:36.846Z,100455.27
2018-03-30T16:58:02.780Z,100450.11
2018-03-30T17:00:28.738Z,100445.37
2018-03-30T17:02:54.687Z,100442.34
2018-03-30T17:05:20.662Z,100451.19
2018-03-30T17:07:46.671Z,100445.91
2018-03-30T17:10:12.701Z,100447.67
2018-03-30T17:12:38.965Z,100448.97
2018-03-30T17:15:04.898Z,100444.10
2018-03-30T17:17:31.097Z,100444.05
2018-03-30T17:19:57.027Z,100445.77
2018-03-30T17:22:23.252Z,100451.91
2018-03-30T17:24:49.247Z,100458.36
2018-03-30T17:27:15.237Z,100460.84
2018-03-30T17:29:41.175Z,100469.17
2018-03-30T17:32:07.152Z,100462.08
2018-03-30T17:34:33.112Z,100457.59
2018-03-30T17:36:59.049Z,100459.22
2018-03-30T17:39:25.046Z,100461.22
2018-03-30T17:41:50.963Z,100458.38
2018-03-30T17:44:16.932Z,100462.12
2018-03-30T17:46:49.757Z,100458.83
2018-03-30T17:49:15.767Z,100453.38
2018-03-30T17:51:41.736Z,100460.14
2018-03-30T17:54:07.703Z,100461.22
2018-03-30T17:56:34.439Z,100453.95
2018-03-30T17:59:00.667Z,100454.50
2018-03-30T18:01:26.892Z,100450.70
2018-03-30T18:03:52.892Z,100449.05
2018-03-30T18:06:18.857Z,100447.44
2018-03-30T18:08:45.165Z,100448.09
2018-03-30T18:11:11.806Z,100454.32
2018-03-30T18:13:37.751Z,100453.05
2018-03-30T18:16:03.685Z,100457.14
2018-03-30T18:18:29.630Z,100454.22
2018-03-30T18:20:55.585Z,100456.98
2018-03-30T18:23:21.629Z,100460.55
2018-03-30T18:25:47.589Z,100462.80
2018-03-30T18:28:13.887Z,100469.84
2018-03-30T18:30:39.865Z,100470.77
2018-03-30T18:33:05.814Z,100467.76
2018-03-30T18:35:31.741Z,100468.30
2018-03-30T18:37:57.664Z,100474.47
2018-03-30T18:40:23.609Z,100465.80
2018-03-30T18:42:49.539Z,100470.23
2018-03-30T18:45:15.828Z,100473.83
2018-03-30T18:47:42.159Z,100480.05
2018-03-30T18:50:08.146Z,100472.65
2018-03-30T18:52:34.405Z,100475.72
2018-03-30T18:55:00.353Z,100481.95
2018-03-30T18:57:26.362Z,100485.98
2018-03-30T18:59:52.334Z,100480.38
2018-03-30T19:02:18.298Z,100483.98
2018-03-30T19:04:44.227Z,100482.71
2018-03-30T19:07:10.555Z,100482.76
2018-03-30T19:09:36.488Z,100481.88
2018-03-30T19:12:02.436Z,100476.67
2018-03-30T19:14:28.430Z,100479.73
2018-03-30T19:16:54.495Z,100480.18
2018-03-30T19:19:20.432Z,100485.48
2018-03-30T19:21:46.351Z,100477.20
2018-03-30T19:24:12.311Z,100479.78
2018-03-30T19:26:38.272Z,100471.06
2018-03-30T19:29:04.200Z,100467.62
2018-03-30T19:31:30.586Z,100468.59
2018-03-30T19:33:56.507Z,100469.03
2018-03-30T19:36:22.472Z,100471.70
2018-03-30T19:38:48.462Z,100469.95
2018-03-30T19:41:14.690Z,100465.61
2018-03-30T19:43:41.035Z,100471.70
2018-03-30T19:46:06.975Z,100473.50
2018-03-30T19:48:33.004Z,100462.20
2018-03-30T19:50:58.943Z,100461.38
2018-03-30T19:53:24.951Z,100461.85
2018-03-30T19:55:50.878Z,100461.42
2018-03-30T19:58:16.848Z,100455.29
2018-03-30T20:00:42.863Z,100454.02
2018-03-30T20:03:11.654Z,100450.95
2018-03-30T20:05:37.580Z,100453.23
2018-03-30T20:08:03.557Z,100460.20
2018-03-30T20:10:29.474Z,100456.30
2018-03-30T20:12:55.435Z,100458.58
2018-03-30T20:15:21.353Z,100453.72
2018-03-30T20:17:47.697Z,100450.26
2018-03-30T20:20:13.629Z,100454.68
2018-03-30T20:22:39.609Z,100453.38
2018-03-30T20:25:05.908Z,100450.75
2018-03-30T20:27:31.846Z,100454.20
2018-03-30T20:29:57.825Z,100448.47
2018-03-30T20:32:23.816Z,100449.30
2018-03-30T20:34:49.822Z,100445.80
2018-03-30T20:37:15.898Z,100441.89
2018-03-30T20:39:42.104Z,100436.30
2018-03-30T20:42:08.105Z,100441.11
2018-03-30T20:44:34.047Z,100438.53
2018-03-30T20:46:59.990Z,100438.97
2018-03-30T20:49:26.356Z,100431.09
2018-03-30T20:51:52.298Z,100426.76
2018-03-30T20:54:18.229Z,100421.06
2018-03-30T20:56:44.196Z,100425.84
2018-03-30T20:59:10.213Z,100420.58
2018-03-30T21:01:36.160Z,100417.56
2018-03-30T21:04:02.107Z,100410.64
2018-03-30T21:06:28.072Z,100412.92
2018-03-30T21:08:54.022Z,100407.63
2018-03-30T21:11:20.304Z,100404.96
2018-03-30T21:13:46.631Z,100409.73
2018-03-30T21:16:12.607Z,100402.38
2018-03-30T21:18:38.777Z,100401.20
2018-03-30T21:21:04.736Z,100400.67
2018-03-30T21:23:30.689Z,100392.92
2018-03-30T21:25:56.650Z,100392.05
2018-03-30T21:28:22.585Z,100396.00
2018-03-30T21:30:48.506Z,100386.45
2018-03-30T21:33:14.818Z,100390.88
2018-03-30T21:35:40.750Z,100390.88
2018-03-30T21:38:06.800Z,100388.20
2018-03-30T21:40:33.096Z,100381.34
2018-03-30T21:42:59.318Z,100384.45
2018-03-30T21:45:25.305Z,100380.55
2018-03-30T21:47:51.237Z,100387.08
2018-03-30T21:50:17.209Z,100383.66
2018-03-30T21:52:43.163Z,100385.41
2018-03-30T21:55:09.131Z,100383.63
2018-03-30T21:57:35.055Z,100378.89
2018-03-30T22:00:01.013Z,100379.37
2018-03-30T22:02:26.990Z,100387.25
2018-03-30T22:04:52.990Z,100378.98
2018-03-30T22:07:18.979Z,100372.03
2018-03-30T22:09:44.983Z,100366.83
2018-03-30T22:12:10.931Z,100362.92
2018-03-30T22:14:37.275Z,100362.40
2018-03-30T22:17:03.204Z,100358.90
2018-03-30T22:19:29.135Z,100352.34
2018-03-30T22:21:55.153Z,100350.62
2018-03-30T22:24:21.122Z,100350.20
2018-03-30T22:26:47.082Z,100340.52
2018-03-30T22:29:13.020Z,100339.11
2018-03-30T22:31:39.002Z,100335.17
2018-03-30T22:34:04.971Z,100333.47
2018-03-30T22:36:30.933Z,100329.97
2018-03-30T22:38:56.882Z,100329.92
2018-03-30T22:41:22.818Z,100327.29
2018-03-30T22:43:48.769Z,100318.02
2018-03-30T22:46:14.708Z,100314.13
2018-03-30T22:48:40.661Z,100313.20
2018-03-30T22:51:06.614Z,100311.94
2018-03-30T22:53:32.559Z,100311.94
2018-03-30T22:55:58.895Z,100304.11
2018-03-30T22:58:24.834Z,100312.95
2018-03-30T23:00:50.753Z,100315.09
2018-03-30T23:03:16.704Z,100312.52
2018-03-30T23:05:42.671Z,100308.63
2018-03-30T23:08:08.722Z,100306.91
2018-03-30T23:10:34.728Z,100312.60
2018-03-30T23:13:00.705Z,100302.20
2018-03-30T23:15:26.631Z,100299.66
2018-03-30T23:17:52.587Z,100303.59
2018-03-30T23:20:18.565Z,100293.09
2018-03-30T23:22:44.846Z,100288.67
2018-03-30T23:25:10.845Z,100283.03
2018-03-30T23:27:36.780Z,100285.66
2018-03-30T23:30:02.752Z,100286.14
2018-03-30T23:32:28.688Z,100280.94
2018-03-30T23:34:54.708Z,100273.06
2018-03-30T23:37:20.757Z,100274.37
2018-03-30T23:39:46.709Z,100287.06
2018-03-30T23:42:12.648Z,100284.48
2018-03-30T23:44:38.666Z,100283.22
2018-03-30T23:47:04.631Z,100281.47
2018-03-30T23:49:30.563Z,100288.48
2018-03-30T23:51:56.554Z,100280.11
2018-03-30T23:54:22.482Z,100277.48
2018-03-30T23:56:48.404Z,100267.86
2018-03-30T23:59:14.399Z,100263.97
